Time;durP1;ratioP1;P1;durP2;ratioP2;P2;SDS_P1;SDS_P2;PMS_P1;PMS_P2;Temp;Humidity;BMP_temperature;BMP_pressure;BME280_temperature;BME280_humidity;BME280_pressure;Samples;Min_cycle;Max_cycle;Signal;HPM_P1;HPM_P2
2023/06/03 05:50:51;;;;;;;4.35;2.00;;;;;;;;;;10545419;28;20114;-86
2023/06/03 05:55:52;;;;;;;2.85;1.48;;;;;;;;;;10538891;28;20054;-87
2023/06/03 06:00:53;;;;;;;3.20;1.30;;;;;;;;;;10510441;22;20041;-83
2023/06/03 06:05:55;;;;;;;2.60;1.30;;;;;;;;;;10434318;28;20060;-85
2023/06/03 06:10:57;;;;;;;5.68;1.48;;;;;;;;;;10433119;28;20048;-82
2023/06/03 06:15:58;;;;;;;5.43;1.73;;;;;;;;;;10447682;28;20045;-82
2023/06/03 06:20:59;;;;;;;2.38;1.38;;;;;;;;;;10459777;28;20109;-83
2023/06/03 06:26:00;;;;;;;2.92;1.40;;;;;;;;;;10431601;28;20028;-83
2023/06/03 06:31:04;;;;;;;3.42;1.40;;;;;;;;;;10436797;28;20057;-83
2023/06/03 06:36:14;;;;;;;2.00;1.40;;;;;;;;;;10431931;28;20502;-85
2023/06/03 06:41:15;;;;;;;2.63;1.40;;;;;;;;;;10433053;28;20538;-84
2023/06/03 06:46:16;;;;;;;2.50;1.33;;;;;;;;;;10441789;28;20021;-83
2023/06/03 06:51:19;;;;;;;5.55;1.35;;;;;;;;;;10459588;28;20029;-81
2023/06/03 06:56:21;;;;;;;4.38;1.30;;;;;;;;;;10450614;28;20018;-85
2023/06/03 07:01:22;;;;;;;5.45;1.45;;;;;;;;;;10400776;28;20117;-84
2023/06/03 07:06:23;;;;;;;3.38;1.30;;;;;;;;;;10397333;28;20026;-83
2023/06/03 07:11:25;;;;;;;1.50;0.90;;;;;;;;;;10393034;28;20053;-84
2023/06/03 07:16:26;;;;;;;2.35;1.15;;;;;;;;;;10398980;28;20053;-84
2023/06/03 07:21:27;;;;;;;45.40;7.93;;;;;;;;;;10394220;28;20507;-83
2023/06/03 07:26:31;;;;;;;2.80;1.00;;;;;;;;;;10393781;28;20030;-83
2023/06/03 07:31:35;;;;;;;1.35;1.02;;;;;;;;;;10394927;28;20026;-83
2023/06/03 07:36:36;;;;;;;2.00;1.13;;;;;;;;;;10399235;28;20029;-85
2023/06/03 07:41:37;;;;;;;2.33;1.15;;;;;;;;;;10398402;28;20373;-82
2023/06/03 07:46:45;;;;;;;4.63;1.20;;;;;;;;;;10403855;28;20098;-83
2023/06/03 07:51:48;;;;;;;2.53;1.05;;;;;;;;;;10406860;28;20037;-81
2023/06/03 07:56:49;;;;;;;2.45;1.00;;;;;;;;;;10412233;28;20090;-82
2023/06/03 08:01:51;;;;;;;4.65;1.23;;;;;;;;;;10402057;28;20039;-83
2023/06/03 08:06:52;;;;;;;4.25;1.20;;;;;;;;;;10402946;28;20045;-85
2023/06/03 08:11:57;;;;;;;2.42;1.15;;;;;;;;;;10396373;28;20026;-84
2023/06/03 08:17:06;;;;;;;2.45;1.10;;;;;;;;;;10396556;28;20085;-84
2023/06/03 08:22:24;;;;;;;3.15;1.35;;;;;;;;;;10399499;28;20025;-85
2023/06/03 08:27:25;;;;;;;6.38;3.75;;;;;;;;;;10394771;28;20041;-83
2023/06/03 08:32:26;;;;;;;3.80;1.15;;;;;;;;;;10392849;28;20164;-84
2023/06/03 08:37:28;;;;;;;3.50;1.30;;;;;;;;;;10400867;28;20499;-83
2023/06/03 08:42:35;;;;;;;2.13;1.20;;;;;;;;;;10398613;28;20033;-82
2023/06/03 08:47:47;;;;;;;3.30;1.25;;;;;;;;;;10395196;28;20030;-82
2023/06/03 08:52:51;;;;;;;3.72;1.00;;;;;;;;;;10398304;28;20029;-83
2023/06/03 08:58:00;;;;;;;5.50;3.95;;;;;;;;;;10394163;28;20552;-82
2023/06/03 09:03:01;;;;;;;4.40;1.50;;;;;;;;;;10397848;28;20037;-83
2023/06/03 09:08:03;;;;;;;4.13;1.85;;;;;;;;;;10392976;28;20112;-81
2023/06/03 09:13:05;;;;;;;2.25;1.20;;;;;;;;;;10393447;28;20045;-83
2023/06/03 09:18:06;;;;;;;3.67;1.75;;;;;;;;;;10413236;28;20034;-82
2023/06/03 09:23:07;;;;;;;2.95;1.20;;;;;;;;;;10391092;28;20057;-81
2023/06/03 09:28:08;;;;;;;4.35;1.40;;;;;;;;;;10389543;28;20028;-81
2023/06/03 09:33:10;;;;;;;3.00;1.20;;;;;;;;;;10384926;28;20093;-81
2023/06/03 09:38:11;;;;;;;3.65;3.03;;;;;;;;;;10386418;28;20036;-82
2023/06/03 09:43:12;;;;;;;2.25;1.25;;;;;;;;;;10391985;28;20025;-82
2023/06/03 09:48:24;;;;;;;4.45;1.58;;;;;;;;;;10396938;28;20034;-83
2023/06/03 09:53:25;;;;;;;4.32;1.30;;;;;;;;;;10398076;28;20026;-80
2023/06/03 09:58:26;;;;;;;5.85;1.85;;;;;;;;;;10406339;28;20030;-82
2023/06/03 10:03:27;;;;;;;3.25;1.13;;;;;;;;;;10389579;28;20122;-82
2023/06/03 10:08:32;;;;;;;9.55;2.22;;;;;;;;;;10390291;28;20078;-81
2023/06/03 10:13:33;;;;;;;4.95;1.05;;;;;;;;;;10391780;28;20028;-82
2023/06/03 10:18:39;;;;;;;4.57;1.35;;;;;;;;;;10390184;28;20026;-81
2023/06/03 10:23:40;;;;;;;5.35;1.33;;;;;;;;;;10389920;28;20026;-82
2023/06/03 10:28:42;;;;;;;3.45;1.30;;;;;;;;;;10385680;28;20021;-84
2023/06/03 10:33:43;;;;;;;4.93;2.50;;;;;;;;;;10390788;28;20045;-82
2023/06/03 10:38:44;;;;;;;3.20;1.67;;;;;;;;;;10403690;28;20029;-81
2023/06/03 10:43:46;;;;;;;3.13;1.30;;;;;;;;;;10399176;28;20022;-82
2023/06/03 10:48:47;;;;;;;3.45;1.67;;;;;;;;;;10402205;28;20124;-82
2023/06/03 10:54:02;;;;;;;3.47;1.27;;;;;;;;;;10394564;28;20476;-81
2023/06/03 10:59:04;;;;;;;5.10;2.28;;;;;;;;;;10395454;28;20128;-81
2023/06/03 11:04:08;;;;;;;4.57;1.67;;;;;;;;;;10396993;28;20208;-81
2023/06/03 11:09:16;;;;;;;4.00;3.17;;;;;;;;;;10402474;28;20026;-80
2023/06/03 11:14:26;;;;;;;3.78;1.42;;;;;;;;;;10410129;28;20022;-82
2023/06/03 11:19:32;;;;;;;3.83;1.80;;;;;;;;;;10395528;28;20414;-82
2023/06/03 11:24:38;;;;;;;3.22;1.45;;;;;;;;;;10395285;28;20034;-81
2023/06/03 11:29:51;;;;;;;2.83;1.25;;;;;;;;;;10399893;28;20037;-82
2023/06/03 11:35:03;;;;;;;2.17;1.10;;;;;;;;;;10399638;28;20024;-81
2023/06/03 11:40:05;;;;;;;3.38;1.25;;;;;;;;;;10399291;28;20044;-82
2023/06/03 11:45:24;;;;;;;4.15;2.13;;;;;;;;;;10402568;28;20050;-82
2023/06/03 11:50:26;;;;;;;3.50;2.40;;;;;;;;;;10399984;28;20057;-82
2023/06/03 11:55:28;;;;;;;2.63;1.10;;;;;;;;;;10393949;28;20396;-79
2023/06/03 12:00:29;;;;;;;5.47;1.75;;;;;;;;;;10395469;28;20057;-82
2023/06/03 12:05:30;;;;;;;2.47;1.40;;;;;;;;;;10400480;28;20022;-83
2023/06/03 12:10:40;;;;;;;5.80;1.40;;;;;;;;;;10406508;28;20030;-80
2023/06/03 12:15:41;;;;;;;;;;;;;;;;;;10404921;28;20396;-82
2023/06/03 12:20:42;;;;;;;4.10;2.20;;;;;;;;;;10406704;28;19940;-80
2023/06/03 12:25:44;;;;;;;7.10;5.55;;;;;;;;;;10409199;28;20026;-82
2023/06/03 12:30:45;;;;;;;4.10;1.27;;;;;;;;;;10397336;28;20028;-80
2023/06/03 12:36:04;;;;;;;4.75;1.02;;;;;;;;;;10396138;28;20395;-80
2023/06/03 12:41:08;;;;;;;2.85;1.15;;;;;;;;;;10396771;28;20030;-81
2023/06/03 12:46:19;;;;;;;3.38;1.83;;;;;;;;;;10393075;28;20056;-80
2023/06/03 12:51:30;;;;;;;2.97;1.20;;;;;;;;;;10397543;28;20022;-82
2023/06/03 12:56:35;;;;;;;2.40;1.40;;;;;;;;;;10405007;28;20040;-81
2023/06/03 13:01:36;;;;;;;3.58;0.90;;;;;;;;;;10400705;28;20041;-80
2023/06/03 13:06:40;;;;;;;5.97;1.17;;;;;;;;;;10394840;28;20206;-80
2023/06/03 13:11:41;;;;;;;5.60;1.40;;;;;;;;;;10400598;28;20546;-81
2023/06/03 13:16:43;;;;;;;4.32;1.45;;;;;;;;;;10402555;28;20076;-81
2023/06/03 13:21:44;;;;;;;5.65;1.17;;;;;;;;;;10392627;28;20026;-82
2023/06/03 13:26:45;;;;;;;5.57;3.55;;;;;;;;;;10395391;28;20040;-81
2023/06/03 13:31:46;;;;;;;3.72;1.20;;;;;;;;;;10409642;28;20059;-79
2023/06/03 13:36:47;;;;;;;2.05;0.70;;;;;;;;;;10409011;28;20037;-80
2023/06/03 13:41:49;;;;;;;2.53;0.90;;;;;;;;;;10388876;28;20451;-80
2023/06/03 13:46:52;;;;;;;7.13;0.90;;;;;;;;;;10389596;28;20037;-79
2023/06/03 13:51:53;;;;;;;1.13;0.70;;;;;;;;;;10386543;28;20104;-82
2023/06/03 13:56:54;;;;;;;3.35;1.90;;;;;;;;;;10390186;28;20041;-81
2023/06/03 14:01:55;;;;;;;4.95;4.45;;;;;;;;;;10390246;28;20041;-81
2023/06/03 14:06:56;;;;;;;1.38;0.82;;;;;;;;;;10392113;28;20022;-81
2023/06/03 14:11:57;;;;;;;2.15;0.60;;;;;;;;;;10396630;28;20022;-81
2023/06/03 14:16:59;;;;;;;1.55;0.90;;;;;;;;;;10395378;28;20061;-80
2023/06/03 14:22:00;;;;;;;2.15;0.85;;;;;;;;;;10393788;28;20175;-80
2023/06/03 14:27:01;;;;;;;2.53;1.27;;;;;;;;;;10393142;28;20120;-80
2023/06/03 14:32:02;;;;;;;1.40;0.70;;;;;;;;;;10391339;28;20060;-80
2023/06/03 14:37:03;;;;;;;2.22;0.70;;;;;;;;;;10394519;28;20030;-80
2023/06/03 14:42:04;;;;;;;1.20;0.70;;;;;;;;;;10392427;28;20049;-80
2023/06/03 14:47:05;;;;;;;5.32;0.95;;;;;;;;;;10394924;28;20111;-79
2023/06/03 14:52:06;;;;;;;2.03;0.80;;;;;;;;;;10394053;28;20116;-80
2023/06/03 14:57:07;;;;;;;2.25;0.80;;;;;;;;;;10394524;28;20033;-80
2023/06/03 15:02:08;;;;;;;1.85;0.80;;;;;;;;;;10391923;28;20073;-80
2023/06/03 15:07:11;;;;;;;3.72;0.82;;;;;;;;;;10392855;28;20128;-81
2023/06/03 15:12:12;;;;;;;2.20;0.90;;;;;;;;;;10390723;28;20033;-79
2023/06/03 15:17:14;;;;;;;1.90;1.30;;;;;;;;;;10389397;28;20041;-80
2023/06/03 15:22:15;;;;;;;1.50;0.90;;;;;;;;;;10370444;28;20435;-80
2023/06/03 15:27:16;;;;;;;1.40;0.98;;;;;;;;;;10390515;28;20052;-80
2023/06/03 15:32:17;;;;;;;3.03;1.90;;;;;;;;;;10390903;28;20057;-80
2023/06/03 15:37:18;;;;;;;2.13;0.90;;;;;;;;;;10392956;28;20080;-80
2023/06/03 15:42:19;;;;;;;2.67;1.30;;;;;;;;;;10398021;28;20049;-79
2023/06/03 15:47:20;;;;;;;2.17;1.27;;;;;;;;;;10392070;28;20431;-80
2023/06/03 15:52:22;;;;;;;2.00;1.10;;;;;;;;;;10389099;28;20103;-80
2023/06/03 15:57:23;;;;;;;2.92;1.77;;;;;;;;;;10386494;28;20029;-80
2023/06/03 16:02:24;;;;;;;2.00;1.00;;;;;;;;;;10390899;28;20030;-80
2023/06/03 16:07:25;;;;;;;1.70;0.80;;;;;;;;;;10391521;28;20041;-80
2023/06/03 16:12:26;;;;;;;3.00;0.93;;;;;;;;;;10387673;28;20025;-80
2023/06/03 16:17:27;;;;;;;1.73;1.00;;;;;;;;;;10390352;28;20040;-81
2023/06/03 16:22:29;;;;;;;2.03;1.30;;;;;;;;;;10387347;28;20084;-80
2023/06/03 16:27:30;;;;;;;1.58;1.33;;;;;;;;;;10387880;28;20025;-80
2023/06/03 16:32:31;;;;;;;2.58;1.20;;;;;;;;;;10388273;28;20093;-80
2023/06/03 16:37:32;;;;;;;4.38;2.78;;;;;;;;;;10388594;28;20388;-81
2023/06/03 16:42:33;;;;;;;4.78;1.40;;;;;;;;;;10388104;28;20136;-81
2023/06/03 16:47:35;;;;;;;3.08;1.25;;;;;;;;;;10390102;28;20129;-81
2023/06/03 16:52:37;;;;;;;3.60;1.10;;;;;;;;;;10391185;28;20025;-80
2023/06/03 16:57:38;;;;;;;1.15;0.85;;;;;;;;;;10390586;28;20030;-81
2023/06/03 17:02:39;;;;;;;1.77;0.90;;;;;;;;;;10396457;28;20045;-81
2023/06/03 17:07:40;;;;;;;2.55;1.38;;;;;;;;;;10396535;28;20029;-81
2023/06/03 17:12:41;;;;;;;1.25;1.00;;;;;;;;;;10397480;28;20157;-81
2023/06/03 17:17:42;;;;;;;1.40;0.88;;;;;;;;;;10395750;28;20074;-80
2023/06/03 17:22:43;;;;;;;1.95;1.20;;;;;;;;;;10394096;28;20025;-81
2023/06/03 17:27:44;;;;;;;2.10;0.85;;;;;;;;;;10386320;28;20097;-80
2023/06/03 17:32:46;;;;;;;5.38;2.28;;;;;;;;;;10400646;28;20034;-80
2023/06/03 17:37:47;;;;;;;1.65;1.10;;;;;;;;;;10390605;28;20027;-79
2023/06/03 17:42:48;;;;;;;2.17;1.08;;;;;;;;;;10388528;28;20034;-80
2023/06/03 17:47:49;;;;;;;3.65;1.95;;;;;;;;;;10384424;28;20120;-80
2023/06/03 17:52:50;;;;;;;1.50;0.90;;;;;;;;;;10386163;28;20030;-80
2023/06/03 17:57:53;;;;;;;3.47;1.50;;;;;;;;;;10388995;28;20022;-80
2023/06/03 18:03:14;;;;;;;3.63;1.33;;;;;;;;;;10433638;22;20091;-90
2023/06/03 18:14:29;;;;;;;1.90;1.15;;;;;;;;;;10381822;28;20051;-90
